Resolute Bay Airport
CYRB : now visible

Airfield :











YOU CAN JOIN US ON...

 
LOGIN :

Register | Disclaimer

   EN    FR    IT 

 









Legend :    VFR   Marginal VFR   IFR   Intensive IFR   Very Intensive IFR
Visi :
Ceiling :
>= 8 km
>= 3000ft
5 to 8 km
1000 to 3000 ft
1500m to 5 km
500 to 1000 ft
800 to 1500m
200 to 500 ft
< 800m
< 200 ft
Symbols :   Thunderstorms  Fog  Heavy snow  Heavy precipitations  Wind > 20 kt






- Airport Elevation : 215 ft
- IATA code : YRB


CYRB - Resolute Bay

CURRENT METAR :
  • 251000Z 04013KT 30SM FEW043 BKN062 02/M00 A2960 RMK SC1SC6 SLP030

EXPIRED METARs :
  • 250900Z 04014KT 30SM FEW036 BKN061 02/M00 A2958 RMK SC1SC5 SLP024
  • 250800Z 01010KT 30SM R35/3000V4500FT/N SCT036 BKN057 02/M01 A2957 RMK SC4SC1 SLP022

TAF TAF CYRB
Valid from the 25 at 06:00 until the 26 at 06:00 UTC


250538Z 2506/2606 11007KT P6SM BKN020 BKN050
TEMPO 2506/2512 08015KT SCT025
FM251200 08015KT P6SM BKN030
TEMPO 2512/2604 P6SM -SHRA BKN020
BECMG 2514/2516 10012KT
FM260400 11012KT 3SM BR BKN006 OVC020 RMK NXT FCST BY 251200Z
CZEG FIR / North America



MET'MAP, your aeronautical weather chart ! - Copyright ORBIFLY December 2007 - Disclaimer

ORBIFLY MET'MAP TEAM :

Programming & Development : Alexandra Zaïnal
Concept & original design : Baudouin d'Aumeries
Assistance for programming : Marc-Olivier Méhu
Technical & hardware support : Manuel Goepfert

Contact : metmap@orbifly.com




SOURCES & CREDITS :

   NOAA       Earth
Advisory